createdAt,value
2023-04-11T00:00:50.742Z,26.06
2023-04-11T00:01:50.873Z,26.01
2023-04-11T00:02:50.957Z,25.98
2023-04-11T00:03:51.116Z,25.98
2023-04-11T00:04:50.976Z,25.98
2023-04-11T00:05:51.019Z,25.97
2023-04-11T00:06:51.065Z,25.96
2023-04-11T00:07:51.119Z,25.95
2023-04-11T00:08:51.180Z,25.93
2023-04-11T00:09:51.250Z,25.94
2023-04-11T00:10:51.336Z,25.95
2023-04-11T00:11:51.361Z,25.95
2023-04-11T00:12:51.418Z,25.93
2023-04-11T00:13:51.437Z,25.91
2023-04-11T00:14:51.473Z,25.93
2023-04-11T00:15:51.537Z,25.92
2023-04-11T00:16:51.673Z,25.91
2023-04-11T00:17:51.726Z,25.90
2023-04-11T00:18:51.722Z,25.90
2023-04-11T00:20:01.244Z,25.89
2023-04-11T00:20:51.735Z,25.97
2023-04-11T00:21:51.728Z,25.94
2023-04-11T00:22:51.716Z,25.91
2023-04-11T00:23:51.714Z,25.93
2023-04-11T00:24:51.720Z,25.91
2023-04-11T00:25:51.697Z,25.90
2023-04-11T00:26:51.722Z,25.91
2023-04-11T00:27:51.682Z,25.90
2023-04-11T00:28:51.677Z,25.89
2023-04-11T00:29:51.668Z,25.90
2023-04-11T00:30:51.677Z,25.88
2023-04-11T00:31:51.683Z,25.90
2023-04-11T00:32:51.682Z,25.92
2023-04-11T00:33:51.656Z,25.92
2023-04-11T00:34:51.636Z,25.93
2023-04-11T00:35:51.673Z,25.91
2023-04-11T00:36:51.679Z,25.95
2023-04-11T00:37:51.653Z,25.92
2023-04-11T00:38:51.605Z,25.91
2023-04-11T00:39:51.604Z,25.93
2023-04-11T00:40:51.591Z,25.91
2023-04-11T00:41:51.581Z,25.91
2023-04-11T00:42:51.629Z,25.93
2023-04-11T00:43:51.684Z,25.91
2023-04-11T00:44:51.748Z,25.91
2023-04-11T00:45:51.806Z,25.92
2023-04-11T00:46:51.842Z,25.92
2023-04-11T00:47:51.995Z,25.92
2023-04-11T00:48:51.941Z,25.92
2023-04-11T00:49:52.011Z,25.91
2023-04-11T00:50:52.072Z,25.91
2023-04-11T00:51:52.113Z,25.94
2023-04-11T00:52:52.168Z,25.93
2023-04-11T00:53:52.214Z,25.92
2023-04-11T00:54:52.288Z,25.93
2023-04-11T00:55:52.329Z,25.90
2023-04-11T00:56:52.392Z,25.94
2023-04-11T00:57:52.448Z,25.92
2023-04-11T00:58:52.535Z,25.91
2023-04-11T00:59:52.578Z,25.93
2023-04-11T01:00:52.699Z,25.92
2023-04-11T01:01:52.899Z,25.93
2023-04-11T01:02:53.031Z,25.92
2023-04-11T01:03:52.875Z,25.93
2023-04-11T01:04:52.870Z,25.93
2023-04-11T01:05:52.917Z,25.94
2023-04-11T01:06:53.000Z,25.94
2023-04-11T01:07:53.021Z,25.92
2023-04-11T01:08:53.343Z,25.92
2023-04-11T01:09:53.117Z,25.93
2023-04-11T01:10:53.177Z,25.93
2023-04-11T01:11:53.241Z,25.94
2023-04-11T01:12:53.299Z,25.93
2023-04-11T01:13:53.358Z,25.95
2023-04-11T01:14:53.420Z,25.93
2023-04-11T01:15:53.442Z,25.92
2023-04-11T01:16:53.522Z,25.93
2023-04-11T01:17:53.567Z,25.94
2023-04-11T01:18:53.852Z,25.94
2023-04-11T01:19:53.658Z,25.92
2023-04-11T01:20:53.715Z,25.94
2023-04-11T01:21:53.771Z,25.91
2023-04-11T01:22:53.829Z,25.92
2023-04-11T01:23:53.878Z,25.93
2023-04-11T01:24:53.923Z,25.93
2023-04-11T01:25:53.975Z,25.93
2023-04-11T01:26:54.043Z,25.93
2023-04-11T01:27:54.115Z,25.93
2023-04-11T01:28:54.375Z,25.91
2023-04-11T01:29:54.205Z,25.95
2023-04-11T01:30:54.312Z,25.92
2023-04-11T01:31:54.309Z,25.94
2023-04-11T01:32:54.396Z,25.94
2023-04-11T01:33:54.418Z,25.93
2023-04-11T01:34:54.459Z,25.93
2023-04-11T01:35:54.532Z,25.92
2023-04-11T01:36:54.540Z,25.92
2023-04-11T01:37:54.562Z,25.92
2023-04-11T01:38:54.959Z,25.93
2023-04-11T01:39:54.665Z,25.92
2023-04-11T01:40:54.700Z,25.90
2023-04-11T01:41:54.737Z,25.90
2023-04-11T01:42:54.792Z,25.93
2023-04-11T01:43:54.858Z,25.92
2023-04-11T01:44:54.897Z,25.91
2023-04-11T01:45:54.947Z,25.93
2023-04-11T01:46:55.034Z,25.94
2023-04-11T01:47:55.141Z,25.91
2023-04-11T01:48:55.542Z,25.93
2023-04-11T01:49:55.181Z,25.92
2023-04-11T01:50:55.235Z,25.91
2023-04-11T01:51:55.298Z,25.92
2023-04-11T01:52:55.334Z,25.93
2023-04-11T01:53:55.388Z,25.91
2023-04-11T01:54:55.410Z,25.92
2023-04-11T01:55:55.457Z,25.90
2023-04-11T01:56:55.503Z,25.93
2023-04-11T01:57:55.562Z,25.91
2023-04-11T01:58:55.788Z,25.93
2023-04-11T01:59:55.678Z,25.92
2023-04-11T02:00:55.745Z,25.90
2023-04-11T02:01:55.843Z,25.92
2023-04-11T02:02:56.022Z,25.90
2023-04-11T02:03:56.046Z,25.91
2023-04-11T02:04:55.960Z,25.91
2023-04-11T02:05:56.033Z,25.92
2023-04-11T02:06:56.091Z,25.92
2023-04-11T02:07:56.130Z,25.93
2023-04-11T02:08:56.335Z,25.91
2023-04-11T02:09:56.261Z,25.90
2023-04-11T02:10:56.301Z,25.92
2023-04-11T02:11:56.365Z,25.93
2023-04-11T02:12:56.444Z,25.91
2023-04-11T02:13:56.477Z,25.94
2023-04-11T02:14:56.564Z,25.93
2023-04-11T02:15:56.613Z,25.92
2023-04-11T02:16:56.648Z,25.91
2023-04-11T02:17:56.726Z,25.91
2023-04-11T02:18:56.926Z,25.93
2023-04-11T02:19:56.797Z,25.92
2023-04-11T02:20:56.852Z,25.93
2023-04-11T02:21:56.916Z,25.92
2023-04-11T02:22:56.974Z,25.93
2023-04-11T02:23:57.038Z,25.92
2023-04-11T02:24:57.121Z,25.93
2023-04-11T02:25:57.177Z,25.95
2023-04-11T02:26:57.227Z,25.96
2023-04-11T02:27:57.282Z,25.96
2023-04-11T02:28:57.553Z,25.93
2023-04-11T02:29:57.402Z,25.94
2023-04-11T02:30:57.535Z,25.97
2023-04-11T02:31:57.651Z,25.98
2023-04-11T02:32:57.599Z,25.98
2023-04-11T02:33:57.615Z,25.95
2023-04-11T02:34:57.691Z,25.97
2023-04-11T02:35:57.730Z,25.96
2023-04-11T02:36:57.827Z,25.98
2023-04-11T02:37:57.835Z,25.96
2023-04-11T02:38:57.889Z,25.98
2023-04-11T02:39:57.945Z,25.98
2023-04-11T02:40:57.998Z,25.98
2023-04-11T02:41:58.043Z,25.99
2023-04-11T02:42:58.113Z,25.98
2023-04-11T02:43:58.177Z,25.98
2023-04-11T02:44:58.216Z,25.98
2023-04-11T02:46:09.530Z,25.98
2023-04-11T02:46:58.266Z,25.99
2023-04-11T02:47:58.271Z,25.99
2023-04-11T02:48:58.295Z,25.97
2023-04-11T02:49:58.226Z,25.96
2023-04-11T02:50:58.241Z,25.99
2023-04-11T02:51:58.228Z,25.98
2023-04-11T02:52:58.201Z,25.98
2023-04-11T02:53:58.206Z,26.00
2023-04-11T02:54:58.188Z,25.99
2023-04-11T02:55:58.194Z,25.98
2023-04-11T02:56:58.186Z,25.99
2023-04-11T02:57:58.170Z,25.98
2023-04-11T02:58:58.855Z,25.96
2023-04-11T02:59:58.160Z,25.97
2023-04-11T03:00:58.144Z,25.98
2023-04-11T03:01:58.311Z,25.98
2023-04-11T03:02:58.202Z,25.97
2023-04-11T03:03:58.209Z,25.96
2023-04-11T03:04:58.111Z,25.99
2023-04-11T03:05:58.113Z,25.98
2023-04-11T03:06:58.132Z,26.00
2023-04-11T03:07:58.111Z,26.01
2023-04-11T03:08:58.322Z,25.99
2023-04-11T03:09:58.090Z,26.00
2023-04-11T03:10:58.148Z,26.02
2023-04-11T03:11:58.221Z,26.00
2023-04-11T03:12:58.273Z,26.01
2023-04-11T03:13:58.336Z,26.02
2023-04-11T03:14:58.384Z,25.99
2023-04-11T03:15:58.457Z,26.00
2023-04-11T03:16:58.496Z,25.99
2023-04-11T03:17:58.633Z,26.00
2023-04-11T03:18:58.639Z,26.00
2023-04-11T03:19:58.675Z,26.00
2023-04-11T03:20:58.738Z,26.00
2023-04-11T03:21:58.795Z,25.99
2023-04-11T03:22:58.877Z,26.02
2023-04-11T03:23:58.901Z,26.01
2023-04-11T03:24:58.945Z,26.01
2023-04-11T03:25:59.028Z,26.02
2023-04-11T03:26:59.062Z,26.04
2023-04-11T03:27:59.132Z,26.00
2023-04-11T03:28:59.173Z,26.00
2023-04-11T03:29:59.194Z,26.02
2023-04-11T03:30:59.265Z,26.01
2023-04-11T03:31:59.313Z,26.02
2023-04-11T03:32:59.391Z,26.03
2023-04-11T03:33:59.420Z,26.04
2023-04-11T03:34:59.451Z,26.03
2023-04-11T03:35:59.502Z,26.05
2023-04-11T03:36:59.555Z,26.01
2023-04-11T03:37:59.605Z,26.03
2023-04-11T03:38:59.694Z,26.04
2023-04-11T03:39:59.699Z,26.03
2023-04-11T03:40:59.756Z,26.03
2023-04-11T03:41:59.801Z,26.02
2023-04-11T03:43:00.257Z,26.02
2023-04-11T03:43:59.900Z,26.01
2023-04-11T03:44:59.947Z,26.01
2023-04-11T03:45:59.999Z,26.01
2023-04-11T03:47:00.071Z,26.04
2023-04-11T03:48:00.129Z,26.04
2023-04-11T03:49:00.171Z,26.02
2023-04-11T03:50:00.192Z,26.04
2023-04-11T03:51:00.230Z,26.02
2023-04-11T03:52:00.283Z,26.02
2023-04-11T03:53:00.355Z,26.03
2023-04-11T03:54:00.414Z,26.04
2023-04-11T03:55:00.487Z,26.03
2023-04-11T03:56:00.504Z,26.02
2023-04-11T03:57:00.540Z,26.02
2023-04-11T03:58:00.615Z,26.03
2023-04-11T03:59:00.669Z,26.02
2023-04-11T04:00:00.722Z,26.01
2023-04-11T04:01:00.767Z,26.00
2023-04-11T04:02:00.880Z,26.02
2023-04-11T04:03:01.040Z,26.02
2023-04-11T04:04:01.317Z,26.04
2023-04-11T04:05:01.014Z,26.02
2023-04-11T04:06:01.029Z,26.02
2023-04-11T04:07:01.070Z,26.03
2023-04-11T04:08:01.111Z,26.04
2023-04-11T04:09:01.145Z,26.02
2023-04-11T04:10:01.167Z,26.04
2023-04-11T04:11:01.227Z,26.01
2023-04-11T04:12:01.244Z,26.04
2023-04-11T04:13:01.298Z,26.02
2023-04-11T04:14:01.361Z,26.02
2023-04-11T04:15:01.410Z,26.05
2023-04-11T04:16:03.498Z,26.03
2023-04-11T04:17:01.468Z,26.04
2023-04-11T04:18:01.502Z,26.03
2023-04-11T04:19:01.454Z,26.03
2023-04-11T04:20:01.435Z,26.02
2023-04-11T04:21:01.435Z,26.02
2023-04-11T04:22:01.439Z,26.00
2023-04-11T04:23:01.415Z,26.02
2023-04-11T04:24:01.414Z,26.01
2023-04-11T04:25:01.412Z,26.03
2023-04-11T04:26:01.456Z,26.01
2023-04-11T04:27:01.419Z,26.03
2023-04-11T04:28:01.376Z,26.01
2023-04-11T04:29:01.387Z,26.01
2023-04-11T04:30:04.229Z,26.01
2023-04-11T04:31:01.366Z,26.02
2023-04-11T04:32:01.425Z,26.01
2023-04-11T04:33:01.395Z,26.02
2023-04-11T04:34:01.358Z,26.04
2023-04-11T04:35:01.358Z,26.04
2023-04-11T04:36:01.425Z,26.05
2023-04-11T04:37:01.320Z,26.01
2023-04-11T04:38:01.318Z,26.04
2023-04-11T04:39:01.302Z,26.03
2023-04-11T04:40:01.308Z,26.03
2023-04-11T04:41:01.285Z,26.04
2023-04-11T04:42:01.285Z,26.04
2023-04-11T04:43:01.310Z,26.03
2023-04-11T04:44:01.285Z,26.03
2023-04-11T04:45:01.298Z,26.03
2023-04-11T04:46:01.347Z,26.02
2023-04-11T04:47:01.245Z,26.02
2023-04-11T04:48:01.252Z,26.01
2023-04-11T04:49:02.416Z,26.04
2023-04-11T04:50:01.226Z,26.01
2023-04-11T04:51:01.246Z,26.03
2023-04-11T04:52:01.290Z,26.02
2023-04-11T04:53:01.345Z,26.04
2023-04-11T04:54:01.398Z,26.03
2023-04-11T04:55:01.557Z,26.01
2023-04-11T04:56:01.530Z,26.02
2023-04-11T04:57:01.544Z,26.03
2023-04-11T04:58:01.618Z,26.02
2023-04-11T04:59:01.674Z,26.02
2023-04-11T05:00:01.680Z,26.03
2023-04-11T05:01:01.754Z,26.04
2023-04-11T05:02:01.851Z,26.04
2023-04-11T05:03:01.953Z,26.03
2023-04-11T05:04:02.583Z,26.03
2023-04-11T05:05:01.930Z,26.05
2023-04-11T05:06:02.255Z,26.04
2023-04-11T05:07:02.028Z,26.04
2023-04-11T05:08:02.094Z,26.04
2023-04-11T05:09:02.134Z,26.04
2023-04-11T05:10:02.194Z,26.05
2023-04-11T05:11:02.251Z,26.04
2023-04-11T05:12:02.315Z,26.01
2023-04-11T05:13:02.367Z,26.05
2023-04-11T05:14:02.416Z,26.03
2023-04-11T05:15:02.483Z,26.03
2023-04-11T05:16:02.583Z,26.01
2023-04-11T05:17:02.617Z,26.04
2023-04-11T05:18:02.642Z,26.04
2023-04-11T05:19:02.608Z,26.04
2023-04-11T05:20:02.656Z,26.05
2023-04-11T05:21:02.757Z,26.05
2023-04-11T05:22:02.773Z,26.17
2023-04-11T05:23:02.808Z,26.17
2023-04-11T05:24:02.849Z,26.23
2023-04-11T05:25:02.899Z,26.24
2023-04-11T05:26:02.948Z,26.22
2023-04-11T05:27:02.997Z,26.20
2023-04-11T05:28:03.052Z,26.24
2023-04-11T05:29:03.135Z,26.26
2023-04-11T05:30:03.675Z,26.26
2023-04-11T05:31:03.855Z,26.23
2023-04-11T05:32:03.246Z,26.24
2023-04-11T05:33:03.871Z,26.22
2023-04-11T05:34:03.345Z,26.19
2023-04-11T05:35:03.384Z,26.18
2023-04-11T05:36:03.443Z,26.17
2023-04-11T05:37:03.459Z,26.21
2023-04-11T05:38:03.532Z,26.20
2023-04-11T05:39:03.575Z,26.20
2023-04-11T05:40:03.649Z,26.20
2023-04-11T05:41:03.741Z,26.24
2023-04-11T05:42:04.119Z,26.35
2023-04-11T05:43:03.836Z,26.41
2023-04-11T05:44:04.241Z,26.50
2023-04-11T05:45:03.970Z,26.63
2023-04-11T05:46:04.048Z,26.69
2023-04-11T05:47:04.066Z,26.78
2023-04-11T05:48:04.110Z,26.83
2023-04-11T05:49:04.241Z,26.91
2023-04-11T05:50:04.172Z,26.92
2023-04-11T05:51:04.232Z,27.10
2023-04-11T05:52:04.268Z,27.15
2023-04-11T05:53:04.762Z,27.49
2023-04-11T05:54:04.773Z,27.60
2023-04-11T05:55:04.475Z,27.73
2023-04-11T05:56:04.545Z,27.88
2023-04-11T05:57:04.586Z,27.95
2023-04-11T05:58:05.771Z,28.02
2023-04-11T05:59:04.653Z,28.06
2023-04-11T06:00:07.974Z,28.07
2023-04-11T06:01:04.681Z,28.14
2023-04-11T06:02:04.958Z,28.21
2023-04-11T06:03:04.766Z,28.17
2023-04-11T06:04:05.168Z,28.19
2023-04-11T06:05:04.703Z,28.17
2023-04-11T06:06:04.659Z,28.19
2023-04-11T06:07:06.732Z,28.16
2023-04-11T06:08:12.055Z,28.15
2023-04-11T06:09:12.068Z,28.19
2023-04-11T06:10:04.787Z,28.23
2023-04-11T06:11:04.629Z,28.29
2023-04-11T06:12:04.646Z,28.33
2023-04-11T06:13:05.594Z,28.41
2023-04-11T06:14:05.782Z,28.48
2023-04-11T06:15:05.590Z,28.59
2023-04-11T06:16:04.634Z,28.68
2023-04-11T06:17:04.552Z,28.71
2023-04-11T06:18:04.841Z,28.72
2023-04-11T06:19:04.647Z,28.69
2023-04-11T06:20:06.016Z,28.75
2023-04-11T06:21:06.010Z,28.77
2023-04-11T06:22:04.851Z,28.84
2023-04-11T06:23:04.910Z,28.86
2023-04-11T06:24:05.256Z,28.82
2023-04-11T06:25:05.049Z,28.80
2023-04-11T06:26:05.747Z,28.80
2023-04-11T06:27:05.153Z,28.79
2023-04-11T06:28:05.206Z,28.78
2023-04-11T06:29:05.273Z,28.80
2023-04-11T06:30:05.347Z,28.78
2023-04-11T06:31:05.435Z,28.78
2023-04-11T06:32:06.481Z,28.75
2023-04-11T06:33:05.884Z,28.67
2023-04-11T06:34:05.608Z,28.65
2023-04-11T06:35:05.681Z,28.63
2023-04-11T06:36:06.214Z,28.66
2023-04-11T06:37:06.764Z,28.68
2023-04-11T06:38:06.293Z,28.70
2023-04-11T06:39:05.846Z,28.79
2023-04-11T06:40:05.897Z,28.78
2023-04-11T06:41:05.976Z,28.84
2023-04-11T06:42:06.028Z,28.94
2023-04-11T06:43:06.290Z,28.99
2023-04-11T06:44:06.130Z,29.08
2023-04-11T06:45:06.351Z,28.81
2023-04-11T06:46:06.263Z,28.41
2023-04-11T06:47:06.242Z,28.20
2023-04-11T06:48:06.304Z,28.34
2023-04-11T06:49:06.317Z,28.39
2023-04-11T06:50:06.360Z,28.54
2023-04-11T06:51:06.443Z,28.57
2023-04-11T06:52:06.361Z,28.61
2023-04-11T06:53:06.768Z,28.65
2023-04-11T06:54:06.790Z,28.71
2023-04-11T06:55:06.350Z,28.72
2023-04-11T06:56:06.372Z,28.80
2023-04-11T06:57:06.413Z,28.80
2023-04-11T06:58:06.417Z,28.77
2023-04-11T06:59:06.815Z,28.75
2023-04-11T07:00:06.412Z,28.73
2023-04-11T07:01:07.437Z,28.67
2023-04-11T07:02:06.550Z,28.61
2023-04-11T07:03:06.663Z,28.57
2023-04-11T07:04:06.847Z,28.56
2023-04-11T07:05:06.510Z,28.56
2023-04-11T07:06:06.545Z,28.53
2023-04-11T07:07:06.599Z,28.50
2023-04-11T07:08:06.599Z,28.54
2023-04-11T07:09:06.579Z,28.53
2023-04-11T07:10:06.621Z,28.51
2023-04-11T07:11:06.642Z,28.49
2023-04-11T07:12:06.671Z,28.46
2023-04-11T07:13:06.687Z,28.48
2023-04-11T07:14:06.730Z,28.46
2023-04-11T07:15:06.767Z,28.46
2023-04-11T07:16:06.827Z,28.44
2023-04-11T07:17:06.866Z,28.38
2023-04-11T07:18:06.978Z,28.40
2023-04-11T07:19:06.985Z,28.41
2023-04-11T07:20:07.278Z,28.38
2023-04-11T07:21:07.038Z,28.36
2023-04-11T07:22:07.074Z,28.37
2023-04-11T07:23:07.118Z,28.35
2023-04-11T07:24:07.278Z,28.32
2023-04-11T07:25:07.176Z,28.30
2023-04-11T07:26:07.285Z,28.33
2023-04-11T07:27:07.288Z,28.32
2023-04-11T07:28:07.365Z,28.29
2023-04-11T07:30:06.446Z,28.33
2023-04-11T07:31:07.859Z,28.28
2023-04-11T07:32:07.579Z,28.30
2023-04-11T07:33:08.103Z,28.29
2023-04-11T07:34:07.690Z,28.31
2023-04-11T07:35:07.837Z,28.30
2023-04-11T07:36:07.850Z,28.31
2023-04-11T07:37:07.856Z,28.30
2023-04-11T07:38:07.909Z,28.26
2023-04-11T07:39:07.993Z,27.88
2023-04-11T07:40:08.327Z,28.19
2023-04-11T07:41:08.290Z,27.99
2023-04-11T07:42:08.110Z,28.24
2023-04-11T07:43:08.180Z,28.42
2023-04-11T07:44:08.287Z,28.57
2023-04-11T07:45:08.177Z,28.61
2023-04-11T07:46:08.256Z,28.78
2023-04-11T07:47:08.196Z,28.97
2023-04-11T07:48:08.295Z,29.11
2023-04-11T07:49:08.286Z,29.21
2023-04-11T07:50:08.326Z,29.38
2023-04-11T07:51:08.398Z,29.44
2023-04-11T07:52:08.448Z,29.45
2023-04-11T07:53:08.788Z,29.58
2023-04-11T07:54:08.537Z,29.68
2023-04-11T07:55:08.608Z,29.77
2023-04-11T07:56:08.963Z,29.92
2023-04-11T07:57:08.707Z,30.03
2023-04-11T07:58:08.747Z,30.16
2023-04-11T07:59:08.806Z,30.15
2023-04-11T08:00:10.957Z,30.34
2023-04-11T08:01:09.296Z,30.54
2023-04-11T08:02:09.838Z,30.56
2023-04-11T08:03:09.424Z,30.72
2023-04-11T08:04:09.685Z,30.77
2023-04-11T08:05:09.065Z,30.66
2023-04-11T08:06:09.386Z,30.40
2023-04-11T08:07:08.810Z,30.36
2023-04-11T08:08:08.801Z,30.32
2023-04-11T08:09:08.788Z,30.35
2023-04-11T08:10:08.804Z,30.32
2023-04-11T08:11:08.812Z,30.33
2023-04-11T08:12:08.799Z,30.23
2023-04-11T08:13:08.766Z,30.22
2023-04-11T08:14:08.793Z,30.35
2023-04-11T08:15:08.848Z,30.30
2023-04-11T08:16:09.360Z,30.21
2023-04-11T08:17:17.648Z,30.20
2023-04-11T08:18:12.107Z,30.14
2023-04-11T08:19:09.326Z,30.21
2023-04-11T08:20:08.962Z,30.18
2023-04-11T08:21:08.930Z,30.25
2023-04-11T08:22:08.949Z,30.35
2023-04-11T08:23:09.001Z,30.28
2023-04-11T08:24:09.323Z,30.31
2023-04-11T08:25:08.928Z,30.37
2023-04-11T08:26:09.304Z,30.36
2023-04-11T08:27:08.931Z,30.46
2023-04-11T08:28:09.911Z,30.49
2023-04-11T08:29:08.903Z,30.56
2023-04-11T08:30:08.876Z,30.54
2023-04-11T08:31:09.399Z,30.55
2023-04-11T08:32:09.307Z,30.46
2023-04-11T08:33:08.852Z,30.52
2023-04-11T08:34:09.442Z,30.55
2023-04-11T08:35:15.814Z,30.50
2023-04-11T08:36:08.855Z,30.61
2023-04-11T08:37:08.817Z,30.62
2023-04-11T08:38:08.820Z,30.72
2023-04-11T08:39:08.948Z,30.82
2023-04-11T08:40:08.811Z,30.64
2023-04-11T08:41:08.813Z,30.56
2023-04-11T08:42:08.805Z,30.51
2023-04-11T08:43:08.818Z,30.59
2023-04-11T08:44:08.902Z,30.62
2023-04-11T08:45:09.055Z,30.59
2023-04-11T08:46:09.188Z,30.60
2023-04-11T08:47:08.755Z,30.61
2023-04-11T08:48:09.625Z,30.56
2023-04-11T08:49:08.919Z,30.53
2023-04-11T08:50:09.653Z,30.53
2023-04-11T08:51:09.026Z,30.52
2023-04-11T08:52:09.065Z,30.50
2023-04-11T08:53:09.379Z,30.47
2023-04-11T08:54:10.069Z,30.48
2023-04-11T08:55:09.438Z,30.47
2023-04-11T08:56:09.319Z,30.49
2023-04-11T08:57:09.282Z,30.49
2023-04-11T08:58:09.248Z,30.49
2023-04-11T08:59:09.517Z,30.49
2023-04-11T09:00:09.145Z,30.44
2023-04-11T09:01:09.383Z,30.39
2023-04-11T09:02:09.363Z,30.38
2023-04-11T09:03:09.398Z,30.37
2023-04-11T09:04:09.434Z,30.44
2023-04-11T09:05:10.301Z,30.47
2023-04-11T09:06:09.641Z,30.41
2023-04-11T09:07:09.519Z,30.42
2023-04-11T09:08:09.147Z,30.43
2023-04-11T09:09:08.099Z,30.40
2023-04-11T09:10:09.527Z,30.38
2023-04-11T09:11:09.337Z,30.34
2023-04-11T09:12:09.052Z,30.33
2023-04-11T09:13:09.043Z,30.33
2023-04-11T09:14:09.342Z,30.28
2023-04-11T09:15:09.474Z,30.26
2023-04-11T09:16:09.178Z,30.31
2023-04-11T09:17:09.031Z,30.30
2023-04-11T09:18:09.024Z,30.26
2023-04-11T09:19:09.013Z,30.24
2023-04-11T09:20:09.345Z,30.22
2023-04-11T09:21:08.989Z,30.25
2023-04-11T09:22:08.998Z,30.25
2023-04-11T09:23:08.999Z,30.27
2023-04-11T09:24:09.342Z,30.27
2023-04-11T09:25:08.969Z,30.27
2023-04-11T09:26:08.977Z,30.23
2023-04-11T09:27:08.998Z,30.18
2023-04-11T09:28:09.028Z,30.21
2023-04-11T09:29:09.345Z,30.20
2023-04-11T09:30:09.356Z,30.24
2023-04-11T09:31:09.140Z,30.21
2023-04-11T09:32:09.357Z,30.22
2023-04-11T09:33:09.193Z,30.27
2023-04-11T09:34:09.351Z,30.24
2023-04-11T09:35:09.284Z,30.23
2023-04-11T09:36:09.358Z,30.25
2023-04-11T09:37:09.373Z,30.20
2023-04-11T09:38:09.427Z,30.17
2023-04-11T09:39:09.853Z,30.17
2023-04-11T09:40:09.517Z,30.18
2023-04-11T09:41:09.864Z,30.17
2023-04-11T09:42:09.856Z,30.17
2023-04-11T09:43:09.722Z,30.18
2023-04-11T09:44:09.760Z,30.16
2023-04-11T09:45:17.210Z,30.21
2023-04-11T09:46:09.962Z,30.19
2023-04-11T09:47:09.830Z,30.37
2023-04-11T09:48:09.865Z,30.42
2023-04-11T09:50:08.783Z,29.95
2023-04-11T09:51:11.490Z,30.11
2023-04-11T09:52:09.856Z,30.25
2023-04-11T09:53:09.765Z,30.52
2023-04-11T09:54:09.855Z,30.80
2023-04-11T09:55:10.162Z,31.03
2023-04-11T09:56:09.758Z,31.19
2023-04-11T09:57:09.861Z,31.32
2023-04-11T09:58:09.964Z,31.31
2023-04-11T09:59:09.709Z,31.47
2023-04-11T10:00:09.712Z,31.44
2023-04-11T10:01:09.947Z,31.50
2023-04-11T10:02:09.765Z,31.86
2023-04-11T10:03:09.862Z,31.94
2023-04-11T10:04:09.904Z,31.97
2023-04-11T10:05:10.009Z,31.91
2023-04-11T10:06:09.666Z,32.08
2023-04-11T10:07:10.052Z,32.24
2023-04-11T10:08:10.089Z,32.36
2023-04-11T10:09:09.992Z,32.46
2023-04-11T10:10:10.653Z,32.60
2023-04-11T10:11:09.916Z,32.57
2023-04-11T10:12:10.011Z,32.74
2023-04-11T10:13:09.610Z,33.04
2023-04-11T10:14:09.616Z,33.29
2023-04-11T10:15:09.644Z,33.38
2023-04-11T10:16:10.384Z,33.43
2023-04-11T10:17:09.873Z,33.47
2023-04-11T10:18:09.749Z,33.66
2023-04-11T10:19:09.801Z,33.77
2023-04-11T10:20:09.787Z,33.84
2023-04-11T10:21:09.827Z,33.80
2023-04-11T10:22:09.868Z,33.87
2023-04-11T10:23:10.372Z,34.06
2023-04-11T10:24:09.957Z,34.09
2023-04-11T10:25:09.937Z,33.99
2023-04-11T10:26:11.024Z,34.22
2023-04-11T10:27:10.366Z,34.09
2023-04-11T10:28:10.031Z,33.66
2023-04-11T10:29:10.372Z,33.33
2023-04-11T10:30:10.128Z,33.75
2023-04-11T10:31:10.377Z,33.62
2023-04-11T10:32:10.870Z,33.34
2023-04-11T10:33:13.605Z,33.15
2023-04-11T10:34:10.285Z,33.11
2023-04-11T10:35:10.285Z,33.04
2023-04-11T10:36:10.716Z,33.13
2023-04-11T10:37:10.472Z,33.19
2023-04-11T10:38:10.563Z,33.42
2023-04-11T10:39:10.372Z,33.55
2023-04-11T10:40:10.558Z,33.64
2023-04-11T10:41:10.277Z,33.65
2023-04-11T10:42:10.221Z,33.93
2023-04-11T10:43:10.206Z,34.10
2023-04-11T10:44:10.375Z,34.12
2023-04-11T10:45:10.234Z,34.21
2023-04-11T10:46:10.180Z,34.39
2023-04-11T10:47:10.221Z,34.26
2023-04-11T10:48:10.187Z,34.39
2023-04-11T10:49:10.383Z,34.69
2023-04-11T10:50:10.166Z,34.92
2023-04-11T10:51:10.181Z,34.90
2023-04-11T10:52:10.145Z,34.82
2023-04-11T10:53:10.384Z,35.17
2023-04-11T10:54:10.381Z,35.27
2023-04-11T10:55:10.144Z,35.54
2023-04-11T10:56:10.129Z,35.57
2023-04-11T10:57:10.116Z,35.64
2023-04-11T10:58:10.384Z,35.59
2023-04-11T10:59:10.395Z,35.53
2023-04-11T11:00:10.113Z,35.63
2023-04-11T11:01:13.234Z,35.63
2023-04-11T11:02:10.144Z,35.93
2023-04-11T11:03:10.194Z,35.82
2023-04-11T11:04:10.831Z,35.90
2023-04-11T11:05:10.104Z,36.11
2023-04-11T11:06:10.424Z,36.02
2023-04-11T11:07:10.072Z,36.32
2023-04-11T11:08:10.311Z,36.53
2023-04-11T11:09:11.005Z,36.57
2023-04-11T11:10:10.043Z,36.86
2023-04-11T11:11:10.117Z,36.66
2023-04-11T11:12:10.157Z,36.63
2023-04-11T11:13:10.418Z,36.56
2023-04-11T11:14:10.094Z,36.89
2023-04-11T11:15:10.122Z,36.71
2023-04-11T11:16:10.224Z,36.74
2023-04-11T11:17:10.246Z,37.20
2023-04-11T11:18:10.392Z,36.98
2023-04-11T11:19:10.372Z,37.16
2023-04-11T11:20:10.421Z,37.20
2023-04-11T11:21:14.209Z,37.28
2023-04-11T11:22:10.461Z,37.39
2023-04-11T11:23:10.910Z,35.49
2023-04-11T11:24:10.884Z,34.93
2023-04-11T11:25:10.449Z,35.22
2023-04-11T11:26:10.428Z,35.27
2023-04-11T11:27:10.430Z,35.64
2023-04-11T11:28:10.418Z,35.65
2023-04-11T11:29:10.892Z,35.67
2023-04-11T11:30:10.410Z,35.80
2023-04-11T11:31:10.397Z,35.88
2023-04-11T11:32:10.414Z,35.92
2023-04-11T11:33:10.444Z,35.88
2023-04-11T11:35:09.374Z,36.03
2023-04-11T11:36:10.410Z,36.09
2023-04-11T11:37:10.356Z,36.02
2023-04-11T11:38:10.399Z,36.13
2023-04-11T11:39:10.370Z,36.32
2023-04-11T11:40:10.333Z,36.31
2023-04-11T11:41:10.334Z,36.40
2023-04-11T11:42:10.346Z,36.41
2023-04-11T11:43:10.391Z,36.58
2023-04-11T11:44:10.304Z,36.73
2023-04-11T11:45:10.312Z,36.67
2023-04-11T11:46:10.331Z,36.90
2023-04-11T11:47:10.307Z,37.00
2023-04-11T11:48:10.406Z,36.80
2023-04-11T11:49:10.285Z,36.92
2023-04-11T11:50:10.301Z,36.40
2023-04-11T11:51:10.284Z,34.26
2023-04-11T11:52:10.259Z,35.26
2023-04-11T11:53:10.256Z,35.36
2023-04-11T11:54:10.373Z,35.24
2023-04-11T11:55:11.459Z,35.26
2023-04-11T11:56:10.242Z,35.25
2023-04-11T11:57:10.354Z,35.22
2023-04-11T11:58:10.406Z,35.15
2023-04-11T11:59:10.279Z,35.03
2023-04-11T12:00:10.346Z,34.92
2023-04-11T12:01:10.370Z,34.76
2023-04-11T12:02:10.512Z,34.64
2023-04-11T12:03:10.580Z,34.55
2023-04-11T12:04:10.656Z,34.41
2023-04-11T12:05:10.625Z,34.25
2023-04-11T12:06:10.617Z,34.20
2023-04-11T12:07:10.716Z,34.13
2023-04-11T12:08:10.913Z,34.04
2023-04-11T12:09:10.785Z,34.00
2023-04-11T12:10:10.837Z,33.94
2023-04-11T12:11:10.915Z,33.91
2023-04-11T12:12:10.942Z,33.89
2023-04-11T12:13:11.408Z,33.87
2023-04-11T12:14:11.055Z,33.83
2023-04-11T12:15:11.119Z,33.79
2023-04-11T12:16:11.510Z,33.74
2023-04-11T12:17:11.199Z,33.71
2023-04-11T12:18:11.331Z,33.70
2023-04-11T12:19:11.305Z,33.67
2023-04-11T12:20:11.346Z,33.65
2023-04-11T12:21:11.353Z,33.61
2023-04-11T12:22:11.689Z,33.58
2023-04-11T12:23:11.919Z,33.56
2023-04-11T12:24:11.477Z,33.52
2023-04-11T12:25:11.523Z,33.49
2023-04-11T12:26:11.567Z,33.47
2023-04-11T12:27:12.512Z,33.41
2023-04-11T12:28:11.625Z,33.42
2023-04-11T12:29:11.910Z,33.35
2023-04-11T12:30:11.712Z,33.36
2023-04-11T12:31:11.814Z,33.31
2023-04-11T12:32:11.815Z,33.28
2023-04-11T12:33:11.925Z,33.30
2023-04-11T12:34:11.909Z,33.29
2023-04-11T12:35:12.433Z,33.25
2023-04-11T12:36:12.012Z,33.24
2023-04-11T12:37:12.044Z,33.23
2023-04-11T12:38:14.885Z,33.19
2023-04-11T12:39:12.424Z,33.15
2023-04-11T12:40:12.399Z,33.13
2023-04-11T12:41:30.934Z,33.08
2023-04-11T12:42:12.359Z,33.03
2023-04-11T12:43:12.449Z,32.97
2023-04-11T12:44:12.274Z,32.94
2023-04-11T12:45:12.046Z,32.96
2023-04-11T12:46:12.068Z,32.97
2023-04-11T12:47:12.424Z,32.98
2023-04-11T12:48:12.028Z,32.95
2023-04-11T12:49:12.424Z,32.91
2023-04-11T12:50:12.582Z,32.90
2023-04-11T12:51:12.008Z,32.88
2023-04-11T12:52:12.009Z,32.88
2023-04-11T12:53:11.993Z,32.87
2023-04-11T12:54:12.427Z,32.86
2023-04-11T12:55:11.982Z,32.81
2023-04-11T12:56:11.991Z,32.83